Hovedside
METAR-TAF:

METAR-TAF

Lufthavner :

Bintulu, Malaysia

breddegrad: 03-12N, lengdegrad: 113-02E, høyde over havet: 2 m

Gjeldene værobservasjon

Denne rapporten ble laget for 1 time og 19 minutter siden, klokken 01:00 UTC
Vind 6 kt fra Sørvest, skiftende mellom Sør og Vest
Temperatur 27°C
Luftfuktighet 89%
Trykk 1010 hPa
Sikt 10 km eller mer
Spredte skyer i en høyde av 1600 ft

METAR: WBGB 220100Z 23006KT 190V260 9999 SCT016 27/25 Q1010

Tid: 10:19 (02:19 UTC)

Varsel

Denne rapporten ble laget for 3 timer og 19 minutter siden, klokken 23:00 UTC
Varsel gyldig fra 22. klokken 00 UTC til 23. klokken 00 UTC
Vind 5 kt fra Sørøst
Sikt 10 km eller mer
Få skyer i en høyde av 1600 ft
Midlertidig
fra 22. klokken 05 UTC til 22. klokken 09 UTC
Vind 6 kt fra Nordvest
Sikt: 4000 m
Få skyer i en høyde av 1500 ft, Bygeskyer.
Spredte skyer i en høyde av 1600 ft
torden, regn,

TAF: WBGB 212300Z 2200/2300 13005KT 9999 FEW016 TEMPO 2205/2209 31006KT 4000 TSRA FEW015CB SCT016

Værobservasjoner og værvarsel for over 4000 flyplasser (METAR- og TAF-rapporter).

Tilgjengelige stasjoner er representert av de røde og gule prikkene på kartet.

Hold musepekeren over prikken for å se navnet på stasjonen.

Klikk så for å se værobservasjoner og -varsler.

For å forandre kartet kan du klikke på den grønne knappen med svart kryss for å zoome inn, på den grønne knappen med strek for å zoome ut, eller på de grønne pilene for å se tilstøtende kart.


METAR-TAF: